Oakesdale, WA (99158)

8:36 AM PDT on July 26, 2014 (GMT -0700)
ITD Marsh Hill ID US (MITD40) Elev 3088 ft | 47.05 °N, 116.86 °W | Change Station

Current weather conditions updated 51 minutes ago

Clear
Clear
65 °F
Feels Like 65 °F
N
0
Wind Variable Wind from NNE
Gusts 1.0 mph

Today is forecast to be Much Warmer than yesterday.

Today
High -- | Low -- °F
--% Chance of Precip.
Yesterday
High -- | Low -- °F
Precip. -- in
5:20 AM 8:29 PM
Waning Crescent, 0% visible
Pressure 30.12 in
Visibility 10.0 miles
Clouds Clear
Dew Point 46 °F
Humidity 50%
Rainfall 0.00 in
Snow Depth Not available.
UV 1 out of 12
Pollen 5.70 out of 12
Air Quality Not available.
Flu Activity Not available.
METAR KPUW 261353Z AUTO 04003KT 10SM CLR 15/07 A3015 RMK AO2 SLP200 T01500072

More Conditions Fewer Conditions

Pressure 30.12 in
Visibility 10.0 miles
Clouds Clear
Dew Point 46 °F
Humidity 50%
Rainfall 0.00 in
Snow Depth Not available.
UV 1 out of 12
Pollen 5.70 out of 12
Air Quality Not available.
Flu Activity Not available.
METAR KPUW 261353Z AUTO 04003KT 10SM CLR 15/07 A3015 RMK AO2 SLP200 T01500072

More Conditions Fewer Conditions

10-Day Weather Forecast

Almanac

Astronomy

Jul. 26, 2014 Rise Set
Actual Time 5:20 AM PDT 8:29 PM PDT
Civil Twilight 4:44 AM PDT 9:05 PM PDT
Nautical Twilight 3:56 AM PDT 9:52 PM PDT
Astronomical Twilight 2:57 AM PDT 10:51 PM PDT
Moon 5:22 AM PDT 8:00 PM PDT
Length of Visible Light 16h 21m
Length of Day
15h 08m
Tomorrow will be 2m 25s shorter.
Waning Crescent, 0% of the Moon is Illuminated
Today
Waning Crescent
Jul 26
New
Aug 3
First Quarter
Aug 10
Full
Aug 17
Last Quarter

Today's Extremes

State Highs State Lows

Community

WunderPhotos

Upload Photos

1,737,616 photos uploaded!

Nearby

Snow Depth

Station Depth Elevation
Quartz Peak 1 in 4700 ft
Sourdough Gulch 0 in 4000 ft
Spruce Springs 0 in 5700 ft
Bunchgrass Meadow 0 in 5000 ft
Moses Mountain 1 in 5300 ft

Earthquake Activity

City Distance Mag. Time & Date
No recent earthquake activity has been reported nearby.
Minimum magnitude displayed is 2.5.

Coastal Water Temperatures

Place Temperature
No Stations Reporting

Nearby Weather Stations

Station Location Temp. Dew Point Humidity Wind Precip. Elev Updated Type
ITD Marsh Hill ID , Potlatch, ID 65 °F 46 °F 50% NNE  at  0 mph 0.00 in / hr 3088 ft 7:45 AM PDT MADIS
Potlatch, Potlatch, ID 64.2 °F 52 °F 64% WNW  at  6.0 mph 0.00 in / hr 2600 ft 8:35 AM PDT Normal
RAWS CHENEY WA, Cheney, WA 62 °F 48 °F 61% ENE  at  5 mph 0.00 in / hr 2229 ft 7:28 AM PDT MADIS
Moscow Mountain (Greenview Lane), Moscow, ID 62.6 °F 47 °F 56% ENE  at  0.0 mph 0.00 in / hr 3440 ft 8:36 AM PDT Rapid Fire

Show More Stations Show Fewer Stations